createdAt,value
2019-03-20T00:01:43.690Z,123.38
2019-03-20T00:04:20.003Z,123.15
2019-03-20T00:06:58.271Z,121.55
2019-03-20T00:09:36.776Z,120.33
2019-03-20T00:12:15.316Z,118.53
2019-03-20T00:14:53.797Z,112.28
2019-03-20T00:17:32.139Z,117.50
2019-03-20T00:20:11.174Z,133.32
2019-03-20T00:22:49.674Z,118.37
2019-03-20T00:25:28.124Z,117.25
2019-03-20T00:28:06.713Z,124.58
2019-03-20T00:30:59.352Z,118.08
2019-03-20T00:33:38.094Z,115.52
2019-03-20T00:36:16.527Z,109.50
2019-03-20T00:38:54.931Z,113.57
2019-03-20T00:41:33.473Z,117.57
2019-03-20T00:44:11.969Z,110.08
2019-03-20T00:46:50.775Z,111.70
2019-03-20T00:49:29.197Z,111.57
2019-03-20T00:52:08.076Z,117.70
2019-03-20T00:54:46.477Z,113.60
2019-03-20T00:57:24.971Z,114.90
2019-03-20T01:00:03.377Z,114.92
2019-03-20T01:02:42.327Z,126.67
2019-03-20T01:05:21.924Z,119.30
2019-03-20T01:08:18.158Z,117.87
2019-03-20T01:10:57.820Z,116.60
2019-03-20T01:13:36.375Z,122.13
2019-03-20T01:16:14.605Z,126.25
2019-03-20T01:18:53.018Z,130.60
2019-03-20T01:21:31.837Z,140.62
2019-03-20T01:24:10.254Z,141.77
2019-03-20T01:26:48.851Z,180.70
2019-03-20T01:29:27.343Z,141.18
2019-03-20T01:32:05.491Z,121.80
2019-03-20T01:34:43.516Z,129.80
2019-03-20T01:37:22.129Z,118.60
2019-03-20T01:40:00.581Z,116.25
2019-03-20T01:42:39.331Z,120.62
2019-03-20T01:45:17.687Z,116.90
2019-03-20T01:47:56.480Z,115.57
2019-03-20T01:50:34.653Z,120.08
2019-03-20T01:53:13.532Z,119.82
2019-03-20T01:55:51.523Z,111.08
2019-03-20T01:58:30.038Z,105.32
2019-03-20T02:01:08.601Z,107.32
2019-03-20T02:03:46.905Z,110.68
2019-03-20T02:06:26.451Z,109.37
2019-03-20T02:09:05.346Z,107.17
2019-03-20T02:11:46.048Z,117.25
2019-03-20T02:14:23.924Z,111.85
2019-03-20T02:17:02.234Z,106.30
2019-03-20T02:19:40.750Z,99.85
2019-03-20T02:22:19.003Z,96.28
2019-03-20T02:24:57.589Z,104.03
2019-03-20T02:27:36.358Z,99.65
2019-03-20T02:30:17.249Z,95.28
2019-03-20T02:32:55.917Z,95.65
2019-03-20T02:35:34.751Z,88.00
2019-03-20T02:38:13.862Z,90.45
2019-03-20T02:40:52.159Z,87.72
2019-03-20T02:43:30.729Z,91.00
2019-03-20T02:46:09.088Z,87.92
2019-03-20T02:48:47.703Z,83.37
2019-03-20T02:51:25.594Z,82.08
2019-03-20T02:54:03.936Z,84.58
2019-03-20T02:56:43.739Z,84.85
2019-03-20T02:59:22.149Z,87.22
2019-03-20T03:02:00.430Z,102.42
2019-03-20T03:04:38.486Z,85.67
2019-03-20T03:07:17.024Z,86.40
2019-03-20T03:09:55.269Z,89.58
2019-03-20T03:12:33.712Z,85.85
2019-03-20T03:15:12.408Z,82.05
2019-03-20T03:17:52.097Z,80.20
2019-03-20T03:20:31.726Z,78.52
2019-03-20T03:23:10.042Z,78.67
2019-03-20T03:25:50.188Z,68.97
2019-03-20T03:28:28.059Z,72.82
2019-03-20T03:31:06.417Z,74.05
2019-03-20T03:33:44.800Z,73.30
2019-03-20T03:36:23.497Z,68.70
2019-03-20T03:39:01.989Z,73.45
2019-03-20T03:41:41.549Z,75.52
2019-03-20T03:44:20.670Z,68.75
2019-03-20T03:46:59.206Z,65.95
2019-03-20T03:49:37.850Z,66.47
2019-03-20T03:52:15.794Z,67.65
2019-03-20T03:54:54.769Z,75.15
2019-03-20T03:57:33.312Z,73.12
2019-03-20T04:00:12.480Z,69.77
2019-03-20T04:02:51.421Z,67.65
2019-03-20T04:05:29.593Z,74.22
2019-03-20T04:08:07.906Z,75.72
2019-03-20T04:10:46.342Z,69.25
2019-03-20T04:13:24.506Z,66.22
2019-03-20T04:16:03.403Z,64.40
2019-03-20T04:18:42.049Z,64.90
2019-03-20T04:21:20.279Z,63.87
2019-03-20T04:23:58.685Z,68.55
2019-03-20T04:26:36.686Z,65.17
2019-03-20T04:29:15.164Z,73.87
2019-03-20T04:31:53.518Z,67.10
2019-03-20T04:34:32.284Z,60.88
2019-03-20T04:37:10.878Z,68.17
2019-03-20T04:39:49.129Z,65.20
2019-03-20T04:42:28.096Z,62.55
2019-03-20T04:45:06.641Z,65.25
2019-03-20T04:47:45.489Z,62.03
2019-03-20T04:50:24.114Z,66.45
2019-03-20T04:53:03.104Z,66.17
2019-03-20T04:55:41.596Z,60.05
2019-03-20T04:58:19.885Z,61.95
2019-03-20T05:00:58.321Z,71.02
2019-03-20T05:03:36.608Z,68.00
2019-03-20T05:06:15.077Z,63.38
2019-03-20T05:08:54.793Z,59.80
2019-03-20T05:11:33.858Z,64.32
2019-03-20T05:14:12.614Z,65.15
2019-03-20T05:16:51.152Z,57.95
2019-03-20T05:19:29.520Z,66.90
2019-03-20T05:22:07.761Z,67.67
2019-03-20T05:24:46.587Z,63.70
2019-03-20T05:27:24.913Z,60.67
2019-03-20T05:30:03.592Z,64.05
2019-03-20T05:32:42.049Z,58.92
2019-03-20T05:35:20.605Z,57.80
2019-03-20T05:37:58.936Z,56.25
2019-03-20T05:40:37.253Z,60.43
2019-03-20T05:43:15.580Z,59.60
2019-03-20T05:45:55.163Z,58.58
2019-03-20T05:48:33.792Z,57.03
2019-03-20T05:51:12.018Z,59.83
2019-03-20T05:53:50.357Z,57.17
2019-03-20T05:56:28.767Z,58.98
2019-03-20T05:59:07.220Z,64.05
2019-03-20T06:01:45.643Z,58.30
2019-03-20T06:04:24.221Z,53.45
2019-03-20T06:07:02.475Z,55.83
2019-03-20T06:09:40.764Z,55.45
2019-03-20T06:12:19.422Z,59.25
2019-03-20T06:14:57.868Z,54.53
2019-03-20T06:17:36.556Z,55.60
2019-03-20T06:20:15.843Z,55.58
2019-03-20T06:22:54.000Z,55.65
2019-03-20T06:25:32.399Z,58.95
2019-03-20T06:28:10.732Z,54.03
2019-03-20T06:30:49.311Z,53.98
2019-03-20T06:33:27.817Z,55.05
2019-03-20T06:36:06.386Z,57.55
2019-03-20T06:38:45.417Z,55.67
2019-03-20T06:41:23.941Z,58.60
2019-03-20T06:44:02.591Z,56.92
2019-03-20T06:46:40.874Z,54.77
2019-03-20T06:49:19.045Z,58.58
2019-03-20T06:51:57.502Z,54.55
2019-03-20T06:54:36.224Z,54.27
2019-03-20T06:57:14.728Z,62.60
2019-03-20T07:00:32.419Z,61.33
2019-03-20T07:03:13.655Z,48.05
2019-03-20T07:06:38.158Z,49.67
2019-03-20T07:09:37.223Z,47.08
2019-03-20T07:12:16.995Z,47.50
2019-03-20T07:14:55.555Z,42.38
2019-03-20T07:17:34.235Z,46.00
2019-03-20T07:20:13.497Z,45.92
2019-03-20T07:22:52.502Z,43.20
2019-03-20T07:25:31.369Z,46.28
2019-03-20T07:28:09.826Z,46.63
2019-03-20T07:30:48.072Z,47.43
2019-03-20T07:33:26.408Z,46.83
2019-03-20T07:36:05.478Z,45.80
2019-03-20T07:38:44.082Z,44.40
2019-03-20T07:41:22.516Z,45.10
2019-03-20T07:44:01.087Z,43.78
2019-03-20T07:46:39.248Z,44.67
2019-03-20T07:49:17.639Z,46.23
2019-03-20T07:51:56.074Z,46.80
2019-03-20T07:54:34.859Z,52.27
2019-03-20T07:57:13.352Z,42.60
2019-03-20T07:59:51.914Z,44.00
2019-03-20T08:02:30.135Z,44.60
2019-03-20T08:05:08.561Z,41.83
2019-03-20T08:07:47.013Z,44.15
2019-03-20T08:10:25.452Z,41.08
2019-03-20T08:13:03.588Z,44.00
2019-03-20T08:15:41.840Z,41.85
2019-03-20T08:18:20.157Z,44.98
2019-03-20T08:20:58.667Z,41.75
2019-03-20T08:23:38.595Z,43.17
2019-03-20T08:26:17.204Z,41.70
2019-03-20T08:28:55.636Z,45.28
2019-03-20T08:31:34.004Z,40.30
2019-03-20T08:34:12.245Z,41.50
2019-03-20T08:36:50.906Z,44.27
2019-03-20T08:39:29.364Z,42.23
2019-03-20T08:42:07.980Z,40.10
2019-03-20T08:44:46.108Z,43.45
2019-03-20T08:47:25.091Z,48.33
2019-03-20T08:50:03.281Z,39.33
2019-03-20T08:52:42.127Z,44.45
2019-03-20T08:55:20.762Z,48.28
2019-03-20T08:57:59.695Z,48.70
2019-03-20T09:00:38.290Z,46.92
2019-03-20T09:03:16.933Z,46.08
2019-03-20T09:05:55.441Z,58.25
2019-03-20T09:08:33.598Z,56.70
2019-03-20T09:11:10.331Z,46.30
2019-03-20T09:13:46.954Z,48.65
2019-03-20T09:16:23.986Z,56.58
2019-03-20T09:19:00.443Z,49.27
2019-03-20T09:21:36.858Z,46.05
2019-03-20T09:24:12.984Z,47.65
2019-03-20T09:26:49.508Z,47.67
2019-03-20T09:29:35.410Z,51.42
2019-03-20T09:32:03.345Z,48.15
2019-03-20T09:34:40.088Z,48.02
2019-03-20T09:37:16.827Z,45.25
2019-03-20T09:39:52.812Z,47.67
2019-03-20T09:42:29.102Z,47.62
2019-03-20T09:45:05.774Z,49.53
2019-03-20T09:47:42.132Z,51.13
2019-03-20T09:50:19.698Z,45.10
2019-03-20T09:52:56.383Z,54.08
2019-03-20T09:55:32.800Z,42.98
2019-03-20T09:58:11.787Z,47.78
2019-03-20T10:00:46.958Z,43.68
2019-03-20T10:03:26.382Z,49.98
2019-03-20T10:06:02.793Z,45.67
2019-03-20T10:08:39.255Z,49.15
2019-03-20T10:11:15.807Z,53.28
2019-03-20T10:13:52.098Z,46.77
2019-03-20T10:16:28.627Z,47.23
2019-03-20T10:19:05.044Z,48.87
2019-03-20T10:21:41.045Z,48.38
2019-03-20T10:24:19.943Z,47.70
2019-03-20T10:26:57.612Z,50.43
2019-03-20T10:29:34.144Z,49.10
2019-03-20T10:32:10.831Z,50.17
2019-03-20T10:34:47.250Z,50.40
2019-03-20T10:37:23.716Z,52.08
2019-03-20T10:39:59.691Z,49.40
2019-03-20T10:42:36.118Z,50.58
2019-03-20T10:45:13.268Z,55.80
2019-03-20T10:47:52.549Z,61.33
2019-03-20T10:50:28.229Z,61.50
2019-03-20T10:53:04.696Z,58.40
2019-03-20T10:55:40.538Z,52.17
2019-03-20T10:58:17.067Z,58.55
2019-03-20T11:00:53.664Z,63.23
2019-03-20T11:03:29.275Z,51.45
2019-03-20T11:06:07.429Z,62.17
2019-03-20T11:08:44.073Z,66.62
2019-03-20T11:11:26.961Z,53.87
2019-03-20T11:13:58.034Z,68.80
2019-03-20T11:16:34.297Z,67.92
2019-03-20T11:19:10.806Z,57.33
2019-03-20T11:21:47.603Z,65.10
2019-03-20T11:24:24.040Z,63.25
2019-03-20T11:27:00.245Z,62.55
2019-03-20T11:29:36.583Z,57.25
2019-03-20T11:32:14.356Z,61.70
2019-03-20T11:34:50.886Z,89.20
2019-03-20T11:37:27.120Z,67.17
2019-03-20T11:40:03.782Z,73.15
2019-03-20T11:42:40.908Z,68.78
2019-03-20T11:45:17.556Z,68.22
2019-03-20T11:47:53.997Z,74.85
2019-03-20T11:50:32.754Z,68.22
2019-03-20T11:53:09.550Z,82.82
2019-03-20T11:55:46.168Z,68.25
2019-03-20T11:58:23.101Z,66.40
2019-03-20T12:00:59.800Z,67.78
2019-03-20T12:03:37.233Z,71.40
2019-03-20T12:06:13.569Z,68.10
2019-03-20T12:08:51.247Z,67.78
2019-03-20T12:11:27.719Z,69.72
2019-03-20T12:14:04.375Z,76.57
2019-03-20T12:16:41.184Z,61.05
2019-03-20T12:19:18.861Z,63.45
2019-03-20T12:21:55.193Z,70.28
2019-03-20T12:24:33.120Z,69.97
2019-03-20T12:27:15.174Z,68.65
2019-03-20T12:29:48.436Z,69.77
2019-03-20T12:32:24.612Z,68.97
2019-03-20T12:35:01.386Z,69.82
2019-03-20T12:37:37.505Z,74.50
2019-03-20T12:40:17.839Z,73.92
2019-03-20T12:42:54.318Z,66.57
2019-03-20T12:45:33.584Z,68.35
2019-03-20T12:48:11.731Z,64.35
2019-03-20T12:50:49.300Z,71.57
2019-03-20T12:53:26.348Z,67.87
2019-03-20T12:56:02.788Z,68.70
2019-03-20T12:58:38.888Z,69.15
2019-03-20T13:01:15.834Z,65.83
2019-03-20T13:03:52.099Z,66.20
2019-03-20T13:06:28.782Z,70.32
2019-03-20T13:09:05.539Z,97.00
2019-03-20T13:11:44.006Z,94.77
2019-03-20T13:14:18.898Z,77.82
2019-03-20T13:16:55.175Z,83.70
2019-03-20T13:19:31.808Z,82.40
2019-03-20T13:22:08.300Z,80.05
2019-03-20T13:24:44.888Z,68.00
2019-03-20T13:27:21.543Z,81.22
2019-03-20T13:29:57.565Z,82.80
2019-03-20T13:32:34.753Z,76.80
2019-03-20T13:35:11.928Z,81.02
2019-03-20T13:37:48.457Z,73.72
2019-03-20T13:40:24.958Z,74.90
2019-03-20T13:43:01.340Z,84.52
2019-03-20T13:45:37.771Z,82.95
2019-03-20T13:48:14.630Z,73.47
2019-03-20T13:50:51.478Z,75.12
2019-03-20T13:53:27.662Z,91.08
2019-03-20T13:56:03.744Z,85.97
2019-03-20T13:58:40.528Z,89.35
2019-03-20T14:01:16.793Z,81.02
2019-03-20T14:03:53.495Z,86.55
2019-03-20T14:06:30.058Z,89.70
2019-03-20T14:09:07.646Z,90.77
2019-03-20T14:11:44.411Z,80.38
2019-03-20T14:14:21.060Z,86.00
2019-03-20T14:16:57.408Z,81.90
2019-03-20T14:19:34.282Z,82.70
2019-03-20T14:22:10.821Z,84.60
2019-03-20T14:24:47.139Z,93.40
2019-03-20T14:27:24.166Z,81.45
2019-03-20T14:30:00.477Z,106.52
2019-03-20T14:32:37.251Z,80.80
2019-03-20T14:35:14.330Z,88.12
2019-03-20T14:37:50.757Z,93.90
2019-03-20T14:40:35.325Z,90.15
2019-03-20T14:43:07.850Z,77.82
2019-03-20T14:45:44.089Z,93.75
2019-03-20T14:48:20.752Z,91.78
2019-03-20T14:50:57.171Z,85.90
2019-03-20T14:53:33.824Z,103.32
2019-03-20T14:56:10.112Z,93.45
2019-03-20T14:58:46.552Z,94.70
2019-03-20T15:01:23.144Z,86.92
2019-03-20T15:03:59.579Z,91.35
2019-03-20T15:06:36.121Z,90.75
2019-03-20T15:09:13.515Z,93.20
2019-03-20T15:11:49.840Z,86.47
2019-03-20T15:14:26.528Z,88.90
2019-03-20T15:17:03.294Z,94.17
2019-03-20T15:19:39.550Z,88.00
2019-03-20T15:22:15.728Z,89.35
2019-03-20T15:24:52.126Z,85.72
2019-03-20T15:27:28.500Z,90.67
2019-03-20T15:30:04.929Z,94.55
2019-03-20T15:32:41.130Z,90.77
2019-03-20T15:35:19.222Z,90.85
2019-03-20T15:37:58.697Z,91.28
2019-03-20T15:40:35.267Z,103.45
2019-03-20T15:43:13.984Z,100.87
2019-03-20T15:45:50.586Z,91.65
2019-03-20T15:48:26.989Z,90.67
2019-03-20T15:51:03.963Z,95.05
2019-03-20T15:53:40.170Z,93.27
2019-03-20T15:56:16.716Z,95.77
2019-03-20T15:58:55.345Z,102.25
2019-03-20T16:01:31.676Z,96.37
2019-03-20T16:04:08.690Z,95.40
2019-03-20T16:06:45.001Z,97.75
2019-03-20T16:09:22.701Z,90.97
2019-03-20T16:11:59.152Z,90.80
2019-03-20T16:14:35.665Z,99.15
2019-03-20T16:17:12.171Z,98.95
2019-03-20T16:19:49.091Z,102.27
2019-03-20T16:22:25.585Z,94.90
2019-03-20T16:25:01.845Z,100.07
2019-03-20T16:27:38.599Z,101.82
2019-03-20T16:30:21.451Z,101.78
2019-03-20T16:32:57.964Z,97.30
2019-03-20T16:35:34.507Z,95.67
2019-03-20T16:38:10.855Z,85.30
2019-03-20T16:40:47.544Z,94.70
2019-03-20T16:43:23.981Z,100.53
2019-03-20T16:46:00.821Z,94.95
2019-03-20T16:48:37.054Z,95.65
2019-03-20T16:51:13.416Z,101.22
2019-03-20T16:53:49.568Z,99.07
2019-03-20T16:56:25.985Z,90.30
2019-03-20T16:59:01.996Z,94.13
2019-03-20T17:01:38.222Z,100.22
2019-03-20T17:04:14.981Z,95.12
2019-03-20T17:06:51.437Z,100.25
2019-03-20T17:09:27.794Z,110.17
2019-03-20T17:12:04.721Z,116.17
2019-03-20T17:14:42.088Z,114.20
2019-03-20T17:17:18.731Z,118.10
2019-03-20T17:19:55.104Z,88.25
2019-03-20T17:22:31.434Z,104.17
2019-03-20T17:25:08.175Z,118.33
2019-03-20T17:27:44.241Z,110.60
2019-03-20T17:30:29.522Z,92.05
2019-03-20T17:33:05.813Z,112.12
2019-03-20T17:35:42.108Z,115.45
2019-03-20T17:38:18.441Z,101.90
2019-03-20T17:40:54.827Z,104.27
2019-03-20T17:43:31.300Z,119.22
2019-03-20T17:46:07.797Z,123.75
2019-03-20T17:48:44.520Z,123.82
2019-03-20T17:51:21.238Z,104.53
2019-03-20T17:53:58.069Z,113.03
2019-03-20T17:56:36.760Z,110.92
2019-03-20T17:59:13.796Z,114.05
2019-03-20T18:01:50.638Z,109.70
2019-03-20T18:04:27.139Z,117.62
2019-03-20T18:07:03.363Z,125.75
2019-03-20T18:09:40.840Z,116.77
2019-03-20T18:12:17.150Z,113.15
2019-03-20T18:14:53.869Z,108.95
2019-03-20T18:17:30.268Z,113.80
2019-03-20T18:20:06.748Z,120.92
2019-03-20T18:22:43.388Z,115.95
2019-03-20T18:25:19.929Z,119.22
2019-03-20T18:27:56.242Z,120.33
2019-03-20T18:30:33.286Z,112.52
2019-03-20T18:33:09.947Z,111.03
2019-03-20T18:35:46.598Z,115.08
2019-03-20T18:38:23.114Z,111.30
2019-03-20T18:40:59.628Z,125.18
2019-03-20T18:43:35.821Z,115.50
2019-03-20T18:46:12.603Z,102.07
2019-03-20T18:48:48.601Z,113.60
2019-03-20T18:51:25.060Z,120.57
2019-03-20T18:54:01.703Z,107.65
2019-03-20T18:56:38.582Z,117.60
2019-03-20T18:59:15.627Z,124.82
2019-03-20T19:01:52.295Z,115.42
2019-03-20T19:04:28.417Z,111.88
2019-03-20T19:07:05.406Z,112.57
2019-03-20T19:09:42.938Z,114.92
2019-03-20T19:12:19.849Z,124.30
2019-03-20T19:14:56.396Z,125.02
2019-03-20T19:17:32.925Z,134.72
2019-03-20T19:20:09.810Z,129.35
2019-03-20T19:22:46.109Z,116.82
2019-03-20T19:25:22.459Z,123.35
2019-03-20T19:27:58.680Z,121.70
2019-03-20T19:30:34.919Z,117.33
2019-03-20T19:33:11.614Z,123.42
2019-03-20T19:35:49.069Z,121.05
2019-03-20T19:38:34.483Z,118.30
2019-03-20T19:41:03.092Z,122.53
2019-03-20T19:43:39.506Z,128.50
2019-03-20T19:46:16.089Z,120.25
2019-03-20T19:48:52.468Z,128.07
2019-03-20T19:51:28.818Z,127.97
2019-03-20T19:54:08.574Z,118.02
2019-03-20T19:56:45.048Z,140.62
2019-03-20T19:59:21.571Z,122.70
2019-03-20T20:01:57.706Z,120.87
2019-03-20T20:04:34.048Z,119.30
2019-03-20T20:07:20.197Z,119.77
2019-03-20T20:10:06.519Z,119.60
2019-03-20T20:12:42.828Z,122.92
2019-03-20T20:15:21.764Z,113.47
2019-03-20T20:17:59.409Z,113.62
2019-03-20T20:20:36.259Z,123.80
2019-03-20T20:23:13.445Z,129.12
2019-03-20T20:25:50.305Z,123.75
2019-03-20T20:28:26.443Z,124.65
2019-03-20T20:31:02.833Z,117.28
2019-03-20T20:33:39.207Z,113.70
2019-03-20T20:36:15.747Z,118.40
2019-03-20T20:38:52.115Z,104.80
2019-03-20T20:41:28.900Z,108.55
2019-03-20T20:44:06.786Z,113.22
2019-03-20T20:46:43.147Z,96.32
2019-03-20T20:49:19.815Z,98.27
2019-03-20T20:51:56.595Z,106.43
2019-03-20T20:54:34.200Z,97.95
2019-03-20T20:57:10.590Z,91.25
2019-03-20T20:59:47.418Z,92.30
2019-03-20T21:02:24.890Z,88.80
2019-03-20T21:05:01.558Z,86.25
2019-03-20T21:07:38.251Z,84.28
2019-03-20T21:10:15.460Z,83.27
2019-03-20T21:12:56.633Z,79.87
2019-03-20T21:16:02.330Z,81.47
2019-03-20T21:19:20.927Z,78.92
2019-03-20T21:22:46.471Z,80.60
2019-03-20T21:25:24.775Z,82.02
2019-03-20T21:28:55.507Z,82.37
2019-03-20T21:31:43.975Z,85.22
2019-03-20T21:34:54.792Z,78.30
2019-03-20T21:37:55.875Z,87.30
2019-03-20T21:40:33.045Z,80.70
2019-03-20T21:43:42.535Z,76.20
2019-03-20T21:46:46.606Z,78.97
2019-03-20T21:49:23.767Z,86.37
2019-03-20T21:52:00.850Z,76.35
2019-03-20T21:55:28.243Z,82.82
2019-03-20T21:58:30.033Z,84.17
2019-03-20T22:01:46.591Z,75.17
2019-03-20T22:04:23.798Z,78.62
2019-03-20T22:07:27.514Z,76.87
2019-03-20T22:10:58.219Z,78.17
2019-03-20T22:13:52.584Z,81.45
2019-03-20T22:17:01.825Z,77.60
2019-03-20T22:20:11.469Z,84.45
2019-03-20T22:23:15.362Z,74.00
2019-03-20T22:26:21.152Z,79.15
2019-03-20T22:29:09.975Z,83.37
2019-03-20T22:31:51.778Z,78.00
2019-03-20T22:35:15.440Z,78.45
2019-03-20T22:37:52.306Z,82.05
2019-03-20T22:41:14.103Z,80.38
2019-03-20T22:44:03.990Z,88.45
2019-03-20T22:47:34.126Z,83.75
2019-03-20T22:50:33.022Z,81.15
2019-03-20T22:53:47.027Z,82.90
2019-03-20T22:56:55.200Z,83.55
2019-03-20T22:59:32.426Z,77.50
2019-03-20T23:02:41.379Z,87.75
2019-03-20T23:05:18.329Z,85.75
2019-03-20T23:07:55.389Z,78.10
2019-03-20T23:10:32.790Z,83.17
2019-03-20T23:13:18.460Z,87.62
2019-03-20T23:15:48.719Z,93.58
2019-03-20T23:18:25.538Z,92.57
2019-03-20T23:21:03.528Z,93.87
2019-03-20T23:23:41.472Z,93.27
2019-03-20T23:26:18.620Z,94.75
2019-03-20T23:28:55.546Z,96.75
2019-03-20T23:31:32.909Z,95.70
2019-03-20T23:34:10.119Z,93.97
2019-03-20T23:36:46.714Z,93.30
2019-03-20T23:39:23.832Z,91.63
2019-03-20T23:42:00.875Z,90.10
2019-03-20T23:44:38.080Z,91.08
2019-03-20T23:47:15.271Z,82.27
2019-03-20T23:49:52.241Z,94.75
2019-03-20T23:52:29.273Z,83.78
2019-03-20T23:55:06.162Z,98.12
2019-03-20T23:57:43.463Z,93.58
